createdAt,value
2023-11-11T00:01:29.955Z,99940.38
2023-11-11T00:03:58.674Z,99953.88
2023-11-11T00:06:25.849Z,99955.25
2023-11-11T00:08:53.124Z,99955.50
2023-11-11T00:11:21.630Z,99948.16
2023-11-11T00:13:48.789Z,99958.41
2023-11-11T00:16:16.376Z,99957.81
2023-11-11T00:18:43.617Z,99950.78
2023-11-11T00:21:13.127Z,99970.38
2023-11-11T00:23:40.305Z,99964.00
2023-11-11T00:26:07.541Z,99966.88
2023-11-11T00:28:41.335Z,99973.50
2023-11-11T00:31:09.321Z,99975.69
2023-11-11T00:33:37.367Z,99978.38
2023-11-11T00:36:06.859Z,99983.84
2023-11-11T00:38:36.395Z,99983.38
2023-11-11T00:41:04.655Z,99985.56
2023-11-11T00:43:32.261Z,99979.75
2023-11-11T00:45:59.980Z,99992.16
2023-11-11T00:48:27.385Z,99981.34
2023-11-11T00:50:54.665Z,99981.19
2023-11-11T00:53:21.916Z,99984.44
2023-11-11T00:55:50.543Z,99984.03
2023-11-11T00:58:17.656Z,99985.66
2023-11-11T01:00:45.295Z,99988.34
2023-11-11T01:03:13.393Z,99979.97
2023-11-11T01:05:41.321Z,99981.22
2023-11-11T01:08:08.349Z,99980.13
2023-11-11T01:10:39.104Z,99978.22
2023-11-11T01:13:07.757Z,99989.13
2023-11-11T01:15:35.987Z,99981.75
2023-11-11T01:18:03.379Z,99992.72
2023-11-11T01:20:30.570Z,99995.50
2023-11-11T01:22:57.784Z,99993.25
2023-11-11T01:25:25.109Z,99998.81
2023-11-11T01:27:52.323Z,100002.28
2023-11-11T01:30:21.274Z,100007.81
2023-11-11T01:32:48.415Z,99999.81
2023-11-11T01:35:15.739Z,100011.28
2023-11-11T01:37:43.305Z,100004.88
2023-11-11T01:40:11.696Z,100016.47
2023-11-11T01:42:39.037Z,100014.88
2023-11-11T01:45:07.122Z,100012.72
2023-11-11T01:47:36.867Z,100010.94
2023-11-11T01:50:04.970Z,100009.78
2023-11-11T01:52:32.396Z,100006.00
2023-11-11T01:55:00.167Z,100008.78
2023-11-11T01:57:28.323Z,100016.19
2023-11-11T01:59:56.324Z,100022.47
2023-11-11T02:02:23.411Z,100018.34
2023-11-11T02:04:51.993Z,100014.88
2023-11-11T02:07:19.621Z,100014.13
2023-11-11T02:09:47.776Z,100017.22
2023-11-11T02:12:15.171Z,100020.91
2023-11-11T02:14:42.485Z,100029.63
2023-11-11T02:17:09.773Z,100024.50
2023-11-11T02:19:37.011Z,100026.41
2023-11-11T02:22:05.525Z,100027.16
2023-11-11T02:24:35.223Z,100030.72
2023-11-11T02:27:02.602Z,100034.56
2023-11-11T02:29:30.054Z,100040.25
2023-11-11T02:31:57.188Z,100029.00
2023-11-11T02:34:24.789Z,100039.94
2023-11-11T02:37:00.589Z,100046.38
2023-11-11T02:39:30.125Z,100044.63
2023-11-11T02:41:58.708Z,100046.22
2023-11-11T02:44:26.445Z,100054.56
2023-11-11T02:46:53.553Z,100055.06
2023-11-11T02:49:20.578Z,100053.94
2023-11-11T02:51:47.702Z,100057.66
2023-11-11T02:54:14.867Z,100057.16
2023-11-11T02:56:45.476Z,100055.31
2023-11-11T02:59:15.399Z,100061.78
2023-11-11T03:01:52.885Z,100059.69
2023-11-11T03:04:23.392Z,100054.41
2023-11-11T03:06:51.139Z,100058.00
2023-11-11T03:09:19.660Z,100062.88
2023-11-11T03:11:52.546Z,100060.91
2023-11-11T03:14:21.664Z,100072.25
2023-11-11T03:16:49.297Z,100064.56
2023-11-11T03:19:16.740Z,100073.91
2023-11-11T03:21:44.233Z,100072.72
2023-11-11T03:24:17.302Z,100064.50
2023-11-11T03:26:44.896Z,100068.28
2023-11-11T03:29:12.480Z,100073.03
2023-11-11T03:31:46.189Z,100072.09
2023-11-11T03:34:13.549Z,100070.63
2023-11-11T03:36:41.019Z,100072.38
2023-11-11T03:39:08.499Z,100070.06
2023-11-11T03:41:36.096Z,100076.94
2023-11-11T03:44:05.963Z,100076.69
2023-11-11T03:46:33.578Z,100078.81
2023-11-11T03:49:03.751Z,100078.81
2023-11-11T03:51:30.993Z,100087.13
2023-11-11T03:53:58.335Z,100081.56
2023-11-11T03:56:25.978Z,100093.31
2023-11-11T03:58:53.166Z,100090.81
2023-11-11T04:01:23.710Z,100095.28
2023-11-11T04:03:52.352Z,100083.84
2023-11-11T04:06:20.942Z,100089.16
2023-11-11T04:08:48.205Z,100092.19
2023-11-11T04:11:16.086Z,100089.91
2023-11-11T04:13:47.332Z,100093.59
2023-11-11T04:16:16.025Z,100092.50
2023-11-11T04:18:43.529Z,100090.53
2023-11-11T04:21:13.162Z,100092.78
2023-11-11T04:23:41.816Z,100102.31
2023-11-11T04:26:08.978Z,100091.34
2023-11-11T04:28:36.031Z,100095.19
2023-11-11T04:31:12.573Z,100095.38
2023-11-11T04:33:39.805Z,100108.00
2023-11-11T04:36:08.355Z,100109.59
2023-11-11T04:38:38.634Z,100110.13
2023-11-11T04:41:07.183Z,100109.25
2023-11-11T04:43:45.275Z,100114.66
2023-11-11T04:48:39.672Z,100119.00
2023-11-11T04:51:07.051Z,100120.03
2023-11-11T04:53:35.174Z,100123.22
2023-11-11T04:56:07.362Z,100127.28
2023-11-11T04:58:38.008Z,100123.22
2023-11-11T05:01:05.499Z,100120.97
2023-11-11T05:03:33.125Z,100124.31
2023-11-11T05:06:00.341Z,100125.91
2023-11-11T05:08:27.320Z,100119.28
2023-11-11T05:10:54.475Z,100124.09
2023-11-11T05:13:28.139Z,100118.53
2023-11-11T05:16:05.210Z,100124.56
2023-11-11T05:18:34.294Z,100122.44
2023-11-11T05:21:13.694Z,100123.41
2023-11-11T05:23:41.128Z,100123.25
2023-11-11T05:26:08.443Z,100123.31
2023-11-11T05:28:37.335Z,100123.84
2023-11-11T05:31:04.720Z,100127.28
2023-11-11T05:33:32.020Z,100128.50
2023-11-11T05:35:59.193Z,100124.09
2023-11-11T05:38:33.428Z,100135.84
2023-11-11T05:41:00.645Z,100135.53
2023-11-11T05:43:27.666Z,100142.28
2023-11-11T05:45:56.263Z,100147.28
2023-11-11T05:48:23.475Z,100144.63
2023-11-11T05:50:56.528Z,100143.44
2023-11-11T05:53:24.163Z,100152.19
2023-11-11T05:55:54.217Z,100147.41
2023-11-11T05:58:21.437Z,100155.00
2023-11-11T06:00:48.659Z,100161.31
2023-11-11T06:03:17.411Z,100154.41
2023-11-11T06:05:55.391Z,100167.44
2023-11-11T06:08:22.666Z,100166.69
2023-11-11T06:10:50.252Z,100172.81
2023-11-11T06:13:17.503Z,100175.44
2023-11-11T06:15:46.167Z,100167.91
2023-11-11T06:18:14.166Z,100173.47
2023-11-11T06:20:42.910Z,100179.38
2023-11-11T06:25:41.169Z,100186.56
2023-11-11T06:28:08.793Z,100184.28
2023-11-11T06:30:39.246Z,100187.78
2023-11-11T06:33:06.594Z,100190.56
2023-11-11T06:35:35.582Z,100193.34
2023-11-11T06:38:09.175Z,100192.59
2023-11-11T06:40:36.327Z,100199.81
2023-11-11T06:43:05.664Z,100198.22
2023-11-11T06:45:37.975Z,100191.63
2023-11-11T06:48:06.851Z,100195.53
2023-11-11T06:50:34.270Z,100201.47
2023-11-11T06:53:01.243Z,100194.75
2023-11-11T06:55:31.387Z,100195.13
2023-11-11T06:58:05.190Z,100189.75
2023-11-11T07:00:34.318Z,100191.19
2023-11-11T07:03:01.716Z,100187.75
2023-11-11T07:05:37.289Z,100188.91
2023-11-11T07:08:07.318Z,100198.06
2023-11-11T07:10:39.146Z,100197.50
2023-11-11T07:13:09.795Z,100195.03
2023-11-11T07:15:38.137Z,100209.34
2023-11-11T07:18:08.895Z,100213.66
2023-11-11T07:20:35.991Z,100215.03
2023-11-11T07:23:03.217Z,100225.41
2023-11-11T07:25:59.848Z,100248.72
2023-11-11T07:28:28.310Z,100234.13
2023-11-11T07:30:55.439Z,100243.91
2023-11-11T07:33:22.561Z,100246.00
2023-11-11T07:35:49.675Z,100241.88
2023-11-11T07:38:16.787Z,100245.81
2023-11-11T07:40:43.931Z,100250.31
2023-11-11T07:43:12.392Z,100255.03
2023-11-11T07:45:39.392Z,100250.75
2023-11-11T07:48:07.983Z,100256.47
2023-11-11T07:50:35.266Z,100262.19
2023-11-11T07:53:06.059Z,100262.72
2023-11-11T07:55:33.159Z,100261.22
2023-11-11T08:00:35.032Z,100265.25
2023-11-11T08:03:03.993Z,100272.03
2023-11-11T08:05:31.252Z,100274.13
2023-11-11T08:08:08.213Z,100262.78
2023-11-11T08:10:41.896Z,100273.66
2023-11-11T08:13:09.439Z,100273.56
2023-11-11T08:15:38.161Z,100277.03
2023-11-11T08:18:05.787Z,100285.88
2023-11-11T08:20:32.995Z,100286.78
2023-11-11T08:23:00.186Z,100272.25
2023-11-11T08:25:28.329Z,100281.31
2023-11-11T08:27:56.937Z,100273.03
2023-11-11T08:30:24.809Z,100279.66
2023-11-11T08:32:53.388Z,100286.06
2023-11-11T08:35:21.823Z,100283.28
2023-11-11T08:37:49.863Z,100286.78
2023-11-11T08:40:18.634Z,100280.91
2023-11-11T08:42:45.980Z,100292.94
2023-11-11T08:45:15.024Z,100289.31
2023-11-11T08:47:46.511Z,100295.72
2023-11-11T08:50:15.320Z,100293.84
2023-11-11T08:52:43.316Z,100313.16
2023-11-11T09:03:46.057Z,100299.31
2023-11-11T09:39:11.558Z,100303.81
2023-11-11T10:20:41.508Z,100324.19
2023-11-11T10:23:21.543Z,100313.31
2023-11-11T10:26:01.431Z,100312.50
2023-11-11T10:28:32.275Z,100315.59
2023-11-11T10:31:23.077Z,100328.34
2023-11-11T10:38:13.737Z,100323.25
2023-11-11T10:40:42.254Z,100320.16
2023-11-11T10:43:11.862Z,100331.97
2023-11-11T10:45:39.035Z,100335.91
2023-11-11T10:48:07.071Z,100334.09
2023-11-11T10:50:35.248Z,100329.59
2023-11-11T10:53:05.482Z,100335.94
2023-11-11T10:55:34.857Z,100327.50
2023-11-11T10:58:02.824Z,100330.00
2023-11-11T11:00:29.967Z,100329.63
2023-11-11T11:02:57.873Z,100321.75
2023-11-11T11:05:33.120Z,100326.50
2023-11-11T11:08:08.566Z,100329.31
2023-11-11T11:10:42.307Z,100325.91
2023-11-11T11:13:10.538Z,100333.47
2023-11-11T11:15:45.381Z,100339.75
2023-11-11T11:18:12.990Z,100335.03
2023-11-11T11:20:42.575Z,100333.41
2023-11-11T11:23:12.555Z,100327.34
2023-11-11T11:25:43.482Z,100335.44
2023-11-11T11:28:23.819Z,100340.16
2023-11-11T11:30:52.549Z,100333.88
2023-11-11T11:33:21.419Z,100332.09
2023-11-11T11:35:49.528Z,100333.97
2023-11-11T11:38:28.725Z,100331.63
2023-11-11T11:41:07.012Z,100341.72
2023-11-11T11:43:36.117Z,100336.25
2023-11-11T11:46:05.683Z,100341.78
2023-11-11T11:48:34.601Z,100341.69
2023-11-11T11:51:10.026Z,100335.56
2023-11-11T11:53:38.434Z,100337.03
2023-11-11T11:56:08.001Z,100345.16
2023-11-11T11:58:46.733Z,100341.63
2023-11-11T12:01:25.638Z,100341.19
2023-11-11T12:03:53.913Z,100334.75
2023-11-11T12:06:24.503Z,100337.31
2023-11-11T12:08:53.071Z,100335.72
2023-11-11T12:11:31.646Z,100342.09
2023-11-11T12:14:04.258Z,100344.59
2023-11-11T12:16:39.399Z,100343.63
2023-11-11T12:19:10.760Z,100354.88
2023-11-11T12:21:45.081Z,100344.38
2023-11-11T12:24:12.928Z,100347.41
2023-11-11T12:26:52.960Z,100344.09
2023-11-11T12:29:21.068Z,100352.53
2023-11-11T12:31:53.101Z,100356.84
2023-11-11T12:34:23.727Z,100351.28
2023-11-11T12:36:55.508Z,100360.72
2023-11-11T12:39:26.493Z,100363.47
2023-11-11T12:42:00.368Z,100357.00
2023-11-11T12:44:33.339Z,100362.94
2023-11-11T12:47:00.533Z,100365.78
2023-11-11T12:49:29.566Z,100361.31
2023-11-11T12:52:00.801Z,100363.41
2023-11-11T12:54:35.064Z,100365.81
2023-11-11T12:57:05.288Z,100366.22
2023-11-11T12:59:32.581Z,100367.59
2023-11-11T13:02:05.416Z,100366.78
2023-11-11T13:04:33.308Z,100363.69
2023-11-11T13:07:02.503Z,100365.47
2023-11-11T13:09:40.365Z,100369.31
2023-11-11T13:12:09.264Z,100363.84
2023-11-11T13:14:37.066Z,100360.63
2023-11-11T13:17:09.268Z,100365.59
2023-11-11T13:19:36.761Z,100364.06
2023-11-11T13:22:07.482Z,100368.53
2023-11-11T13:24:34.485Z,100368.59
2023-11-11T13:27:01.812Z,100370.75
2023-11-11T13:29:30.429Z,100375.56
2023-11-11T13:31:58.649Z,100370.25
2023-11-11T13:34:26.386Z,100367.94
2023-11-11T13:36:53.499Z,100372.09
2023-11-11T13:39:38.967Z,100375.66
2023-11-11T13:42:11.411Z,100369.84
2023-11-11T13:44:40.191Z,100372.97
2023-11-11T13:47:10.076Z,100383.25
2023-11-11T13:49:37.692Z,100381.34
2023-11-11T13:52:05.695Z,100396.91
2023-11-11T13:54:32.919Z,100393.84
2023-11-11T13:57:00.076Z,100399.06
2023-11-11T13:59:27.261Z,100398.78
2023-11-11T14:01:55.982Z,100407.66
2023-11-11T14:04:23.481Z,100400.72
2023-11-11T14:06:51.031Z,100401.50
2023-11-11T14:09:18.416Z,100401.34
2023-11-11T14:11:45.706Z,100407.13
2023-11-11T14:14:12.961Z,100413.63
2023-11-11T14:16:40.368Z,100413.09
2023-11-11T14:19:11.312Z,100415.53
2023-11-11T14:21:38.718Z,100412.81
2023-11-11T14:24:08.106Z,100404.44
2023-11-11T14:26:35.397Z,100409.09
2023-11-11T14:29:02.732Z,100412.72
2023-11-11T14:31:32.592Z,100420.84
2023-11-11T14:34:04.212Z,100425.81
2023-11-11T14:36:40.355Z,100425.28
2023-11-11T14:39:09.464Z,100427.47
2023-11-11T14:41:36.936Z,100431.72
2023-11-11T14:44:05.815Z,100431.06
2023-11-11T14:46:35.892Z,100435.13
2023-11-11T14:49:06.395Z,100428.91
2023-11-11T14:51:33.588Z,100429.63
2023-11-11T14:54:02.114Z,100426.84
2023-11-11T14:56:31.838Z,100434.75
2023-11-11T14:58:58.960Z,100433.03
2023-11-11T15:01:26.260Z,100435.31
2023-11-11T15:03:54.549Z,100431.69
2023-11-11T15:06:21.840Z,100434.94
2023-11-11T15:08:49.391Z,100437.56
2023-11-11T15:11:18.417Z,100438.03
2023-11-11T15:13:45.550Z,100435.41
2023-11-11T15:16:15.738Z,100436.03
2023-11-11T15:18:43.295Z,100441.19
2023-11-11T15:21:11.632Z,100443.44
2023-11-11T15:23:38.768Z,100450.56
2023-11-11T15:26:06.950Z,100441.50
2023-11-11T15:28:36.998Z,100437.38
2023-11-11T15:31:05.704Z,100428.56
2023-11-11T15:33:32.826Z,100437.22
2023-11-11T15:36:00.460Z,100443.28
2023-11-11T15:38:27.517Z,100435.06
2023-11-11T15:40:56.744Z,100435.16
2023-11-11T15:43:24.025Z,100433.19
2023-11-11T15:45:52.700Z,100440.88
2023-11-11T15:48:19.934Z,100445.13
2023-11-11T15:50:47.387Z,100449.44
2023-11-11T15:53:14.566Z,100444.63
2023-11-11T15:55:41.768Z,100444.25
2023-11-11T15:58:09.700Z,100440.56
2023-11-11T16:00:38.236Z,100440.34
2023-11-11T16:03:06.993Z,100447.03
2023-11-11T16:05:36.405Z,100443.44
2023-11-11T16:08:04.142Z,100450.09
2023-11-11T16:10:31.437Z,100442.97
2023-11-11T16:12:58.896Z,100446.00
2023-11-11T16:15:26.219Z,100439.59
2023-11-11T16:17:56.406Z,100437.19
2023-11-11T16:20:26.508Z,100443.84
2023-11-11T16:22:54.087Z,100444.41
2023-11-11T16:25:22.109Z,100438.63
2023-11-11T16:27:51.894Z,100433.91
2023-11-11T16:30:19.848Z,100434.41
2023-11-11T16:32:47.256Z,100431.38
2023-11-11T16:35:14.766Z,100441.94
2023-11-11T16:37:43.561Z,100438.91
2023-11-11T16:40:13.793Z,100437.06
2023-11-11T16:42:44.985Z,100442.31
2023-11-11T16:45:13.788Z,100443.84
2023-11-11T16:47:41.899Z,100439.28
2023-11-11T16:50:10.366Z,100438.03
2023-11-11T16:52:38.861Z,100434.06
2023-11-11T16:55:09.778Z,100445.72
2023-11-11T16:57:37.088Z,100437.34
2023-11-11T17:00:06.455Z,100443.88
2023-11-11T17:02:33.769Z,100441.44
2023-11-11T17:05:04.177Z,100438.63
2023-11-11T17:07:31.384Z,100440.78
2023-11-11T17:10:02.322Z,100439.34
2023-11-11T17:12:31.430Z,100436.78
2023-11-11T17:14:59.285Z,100439.47
2023-11-11T17:17:26.420Z,100440.53
2023-11-11T17:19:53.815Z,100445.66
2023-11-11T17:22:23.026Z,100438.53
2023-11-11T17:24:50.710Z,100438.53
2023-11-11T17:27:19.018Z,100438.78
2023-11-11T17:29:47.589Z,100443.03
2023-11-11T17:32:15.067Z,100450.25
2023-11-11T17:34:42.174Z,100450.75
2023-11-11T17:37:09.635Z,100459.97
2023-11-11T17:39:36.721Z,100451.00
2023-11-11T17:42:04.623Z,100453.00
2023-11-11T17:44:31.923Z,100453.69
2023-11-11T17:47:01.190Z,100458.59
2023-11-11T17:49:28.616Z,100460.34
2023-11-11T17:51:55.950Z,100451.47
2023-11-11T17:54:23.337Z,100458.03
2023-11-11T17:56:50.547Z,100466.16
2023-11-11T17:59:18.142Z,100447.31
2023-11-11T18:01:45.279Z,100467.91
2023-11-11T18:04:14.226Z,100460.56
2023-11-11T18:06:45.432Z,100461.97
2023-11-11T18:09:17.368Z,100463.59
2023-11-11T18:11:44.663Z,100458.13
2023-11-11T18:14:12.326Z,100456.13
2023-11-11T18:16:40.127Z,100466.06
2023-11-11T18:19:09.960Z,100458.00
2023-11-11T18:21:39.275Z,100452.75
2023-11-11T18:24:07.923Z,100450.81
2023-11-11T18:26:35.322Z,100452.44
2023-11-11T18:29:02.475Z,100462.41
2023-11-11T18:31:31.273Z,100455.69
2023-11-11T18:34:00.271Z,100464.50
2023-11-11T18:36:27.324Z,100466.72
2023-11-11T18:38:56.359Z,100456.38
2023-11-11T18:41:25.457Z,100456.84
2023-11-11T18:43:52.814Z,100453.38
2023-11-11T18:46:20.201Z,100458.59
2023-11-11T18:48:49.453Z,100456.47
2023-11-11T18:51:16.806Z,100458.22
2023-11-11T18:53:44.377Z,100452.38
2023-11-11T18:56:16.089Z,100453.78
2023-11-11T18:58:43.286Z,100455.84
2023-11-11T19:01:11.081Z,100458.88
2023-11-11T19:03:39.037Z,100450.59
2023-11-11T19:06:06.252Z,100457.22
2023-11-11T19:08:33.537Z,100457.56
2023-11-11T19:11:00.728Z,100456.28
2023-11-11T19:13:29.235Z,100455.00
2023-11-11T19:15:56.631Z,100460.13
2023-11-11T19:18:24.025Z,100450.94
2023-11-11T19:20:51.166Z,100446.97
2023-11-11T19:23:19.717Z,100456.06
2023-11-11T19:25:46.838Z,100455.84
2023-11-11T19:28:14.064Z,100462.84
2023-11-11T19:30:42.663Z,100463.31
2023-11-11T19:33:10.509Z,100470.88
2023-11-11T19:35:37.742Z,100465.91
2023-11-11T19:38:04.988Z,100458.66
2023-11-11T19:40:32.274Z,100468.09
2023-11-11T19:42:59.568Z,100463.44
2023-11-11T19:45:26.729Z,100454.03
2023-11-11T19:47:55.650Z,100461.75
2023-11-11T19:50:23.069Z,100458.03
2023-11-11T19:52:50.708Z,100465.44
2023-11-11T19:55:18.703Z,100467.09
2023-11-11T19:57:46.780Z,100462.31
2023-11-11T20:00:15.325Z,100447.66
2023-11-11T20:02:43.513Z,100453.25
2023-11-11T20:05:14.974Z,100449.16
2023-11-11T20:07:43.698Z,100448.25
2023-11-11T20:10:14.087Z,100444.66
2023-11-11T20:12:43.048Z,100449.19
2023-11-11T20:15:13.303Z,100444.75
2023-11-11T20:17:41.231Z,100436.09
2023-11-11T20:20:09.805Z,100438.09
2023-11-11T20:22:38.406Z,100440.06
2023-11-11T20:25:07.064Z,100434.69
2023-11-11T20:27:37.171Z,100428.97
2023-11-11T20:30:06.269Z,100425.72
2023-11-11T20:32:35.213Z,100423.16
2023-11-11T20:35:14.348Z,100420.47
2023-11-11T20:37:43.592Z,100416.25
2023-11-11T20:40:16.096Z,100403.66
2023-11-11T20:42:45.968Z,100400.81
2023-11-11T20:45:13.903Z,100405.66
2023-11-11T20:47:41.014Z,100396.13
2023-11-11T20:50:11.561Z,100392.38
2023-11-11T20:52:38.985Z,100383.38
2023-11-11T20:55:08.513Z,100382.34
2023-11-11T20:57:35.576Z,100379.13
2023-11-11T21:00:02.999Z,100376.69
2023-11-11T21:02:31.839Z,100377.69
2023-11-11T21:05:04.741Z,100375.50
2023-11-11T21:07:34.667Z,100369.16
2023-11-11T21:10:02.173Z,100367.25
2023-11-11T21:12:30.745Z,100371.72
2023-11-11T21:14:57.971Z,100364.25
2023-11-11T21:17:28.385Z,100367.53
2023-11-11T21:19:55.717Z,100364.38
2023-11-11T21:22:23.675Z,100370.06
2023-11-11T21:24:50.797Z,100356.81
2023-11-11T21:27:17.856Z,100361.59
2023-11-11T21:29:47.570Z,100367.19
2023-11-11T21:32:15.110Z,100368.75
2023-11-11T21:34:42.744Z,100365.66
2023-11-11T21:37:10.252Z,100372.22
2023-11-11T21:39:37.598Z,100371.47
2023-11-11T21:42:05.394Z,100366.19
2023-11-11T21:44:32.474Z,100359.22
2023-11-11T21:47:01.310Z,100363.16
2023-11-11T21:49:29.556Z,100346.47
2023-11-11T21:51:56.568Z,100356.59
2023-11-11T21:54:23.864Z,100354.00
2023-11-11T21:56:51.188Z,100338.97
2023-11-11T21:59:18.295Z,100354.63
2023-11-11T22:01:45.877Z,100345.03
2023-11-11T22:04:14.465Z,100338.66
2023-11-11T22:06:41.687Z,100328.06
2023-11-11T22:09:09.101Z,100330.22
2023-11-11T22:11:39.418Z,100323.69
2023-11-11T22:14:06.910Z,100322.56
2023-11-11T22:16:36.231Z,100324.53
2023-11-11T22:19:05.061Z,100313.13
2023-11-11T22:21:33.652Z,100318.34
2023-11-11T22:24:01.311Z,100324.56
2023-11-11T22:26:28.966Z,100315.44
2023-11-11T22:28:56.415Z,100313.59
2023-11-11T22:31:23.513Z,100325.34
2023-11-11T22:33:50.621Z,100313.41
2023-11-11T22:36:17.868Z,100312.19
2023-11-11T22:38:46.400Z,100318.84
2023-11-11T22:41:13.430Z,100308.38
2023-11-11T22:43:42.327Z,100304.84
2023-11-11T22:46:09.584Z,100314.50
2023-11-11T22:48:37.849Z,100313.38
2023-11-11T22:51:05.485Z,100317.75
2023-11-11T22:53:32.546Z,100305.50
2023-11-11T22:56:01.387Z,100296.84
2023-11-11T22:58:28.476Z,100306.69
2023-11-11T23:00:59.314Z,100314.16
2023-11-11T23:03:28.132Z,100312.53
2023-11-11T23:05:55.237Z,100305.44
2023-11-11T23:08:24.458Z,100303.78
2023-11-11T23:10:51.718Z,100298.09
2023-11-11T23:13:22.114Z,100293.88
2023-11-11T23:15:49.782Z,100287.19
2023-11-11T23:18:17.334Z,100286.38
2023-11-11T23:20:45.339Z,100278.69
2023-11-11T23:23:14.751Z,100275.28
2023-11-11T23:25:42.205Z,100273.16
2023-11-11T23:28:09.821Z,100279.72
2023-11-11T23:30:38.665Z,100267.97
2023-11-11T23:33:07.823Z,100264.53
2023-11-11T23:35:35.279Z,100260.78
2023-11-11T23:38:02.453Z,100263.88
2023-11-11T23:40:30.154Z,100259.13
2023-11-11T23:42:57.416Z,100256.50
2023-11-11T23:45:24.866Z,100259.28
2023-11-11T23:47:53.438Z,100258.31
2023-11-11T23:50:20.667Z,100259.13
2023-11-11T23:52:48.064Z,100255.38
2023-11-11T23:55:15.654Z,100247.72
2023-11-11T23:57:42.871Z,100256.19
